Time;durP1;ratioP1;P1;durP2;ratioP2;P2;SDS_P1;SDS_P2;PMS_P1;PMS_P2;Temp;Humidity;BMP_temperature;BMP_pressure;BME280_temperature;BME280_humidity;BME280_pressure;Samples;Min_cycle;Max_cycle;Signal;HPM_P1;HPM_P2
2021/08/08 00:00:20;;;;;;;15.87;8.23;;;;;;;20.39;62.87;98237.75;263396;1092;115084;-63
2021/08/08 00:05:44;;;;;;;22.47;9.03;;;;;;;20.36;62.88;98229.99;263586;1092;115280;-65
2021/08/08 00:10:48;;;;;;;20.47;8.33;;;;;;;20.38;63.10;98219.83;263696;1092;115278;-61
2021/08/08 00:15:51;;;;;;;19.88;8.03;;;;;;;20.38;63.03;98228.80;263805;1092;116899;-63
2021/08/08 00:20:55;;;;;;;18.88;8.30;;;;;;;20.42;63.05;98224.72;263598;1092;115448;-69
2021/08/08 00:25:59;;;;;;;21.90;10.50;;;;;;;20.42;63.16;98238.23;263555;1093;116147;-71
2021/08/08 00:31:03;;;;;;;16.30;8.10;;;;;;;20.40;63.08;98228.61;263646;1093;115532;-65
2021/08/08 00:36:07;;;;;;;14.30;7.60;;;;;;;20.33;63.14;98221.20;263425;1093;114962;-66
2021/08/08 00:41:11;;;;;;;10.30;5.67;;;;;;;20.31;63.27;98219.70;263422;1092;115355;-63
2021/08/08 00:46:15;;;;;;;11.68;5.48;;;;;;;20.25;62.95;98226.67;263477;1093;115272;-61
2021/08/08 00:51:20;;;;;;;14.97;6.20;;;;;;;20.22;63.27;98223.48;263128;1091;114801;-61
2021/08/08 00:56:26;;;;;;;9.87;5.90;;;;;;;20.15;63.37;98219.80;263226;1092;115626;-61
2021/08/08 01:01:36;;;;;;;13.30;6.63;;;;;;;20.09;63.38;98210.53;263398;1092;115247;-61
2021/08/08 01:07:10;;;;;;;10.23;5.18;;;;;;;20.07;63.50;98199.92;263221;1093;115792;-60
2021/08/08 01:12:14;;;;;;;14.80;5.83;;;;;;;20.11;63.62;98197.70;263399;1092;115297;-62
2021/08/08 01:17:21;;;;;;;16.70;6.37;;;;;;;20.19;63.67;98196.81;263410;1091;115207;-61
2021/08/08 01:22:29;;;;;;;15.88;6.38;;;;;;;20.20;63.48;98188.52;263515;1092;115209;-65
2021/08/08 01:27:33;;;;;;;10.93;6.10;;;;;;;20.26;63.52;98182.41;263533;1093;115705;-60
2021/08/08 01:32:37;;;;;;;12.80;5.35;;;;;;;20.25;63.21;98190.70;263396;1092;115840;-64
2021/08/08 01:37:43;;;;;;;10.43;4.63;;;;;;;20.27;63.05;98148.95;263376;1093;115135;-66
2021/08/08 01:42:49;;;;;;;7.93;3.60;;;;;;;20.29;62.83;98178.52;263638;1093;115602;-60
2021/08/08 01:47:58;;;;;;;5.73;3.43;;;;;;;20.31;62.92;98155.70;263620;1093;115517;-63
2021/08/08 01:53:04;;;;;;;5.93;3.50;;;;;;;20.37;62.45;98181.16;262997;1093;115001;-63
2021/08/08 01:58:09;;;;;;;5.80;3.40;;;;;;;20.44;62.75;98183.98;263565;1092;115079;-64
2021/08/08 02:03:15;;;;;;;7.00;3.37;;;;;;;20.47;62.59;98170.95;263386;1092;114946;-67
2021/08/08 02:08:24;;;;;;;5.23;3.00;;;;;;;20.45;62.11;98180.28;263325;1093;115047;-64
2021/08/08 02:13:34;;;;;;;4.97;3.30;;;;;;;20.43;62.34;98182.31;262768;1092;115074;-64
2021/08/08 02:18:38;;;;;;;6.40;3.80;;;;;;;20.38;62.42;98185.56;263106;1092;114875;-66
2021/08/08 02:23:43;;;;;;;5.10;3.43;;;;;;;20.32;62.27;98172.76;263469;1092;114803;-66
2021/08/08 02:28:47;;;;;;;7.93;3.30;;;;;;;20.34;62.64;98173.41;263363;1093;115859;-64
2021/08/08 02:33:51;;;;;;;7.13;3.03;;;;;;;20.43;62.55;98163.39;263121;1092;114717;-65
2021/08/08 02:38:55;;;;;;;4.48;2.90;;;;;;;20.47;62.18;98170.95;263766;1092;115836;-64
2021/08/08 02:43:59;;;;;;;6.50;3.03;;;;;;;20.48;62.33;98178.06;263558;1093;115406;-64
2021/08/08 02:49:04;;;;;;;3.33;2.43;;;;;;;20.50;62.00;98172.46;263861;1091;115122;-65
2021/08/08 02:54:11;;;;;;;7.30;2.80;;;;;;;20.51;61.83;98183.11;263389;1093;115392;-66
2021/08/08 02:59:15;;;;;;;5.77;2.40;;;;;;;20.54;61.44;98188.16;263357;1092;115129;-64
2021/08/08 03:04:22;;;;;;;4.90;2.50;;;;;;;20.59;61.56;98197.63;263423;1092;114909;-63
2021/08/08 03:09:26;;;;;;;7.27;2.70;;;;;;;20.60;61.47;98197.43;263021;1092;114986;-64
2021/08/08 03:14:30;;;;;;;5.28;2.73;;;;;;;20.61;61.41;98214.48;263355;1093;115163;-65
2021/08/08 03:19:34;;;;;;;5.45;2.60;;;;;;;20.60;61.86;98224.47;263187;1092;114961;-64
2021/08/08 03:24:38;;;;;;;5.48;2.78;;;;;;;20.59;61.74;98236.31;263283;1092;115271;-65
2021/08/08 03:29:42;;;;;;;6.48;3.45;;;;;;;20.60;61.67;98245.26;263351;1092;114868;-67
2021/08/08 03:34:46;;;;;;;6.80;3.93;;;;;;;20.56;61.67;98255.59;263175;1091;115295;-66
2021/08/08 03:39:51;;;;;;;6.03;3.50;;;;;;;20.52;61.77;98273.19;263167;1093;115256;-65
2021/08/08 03:44:55;;;;;;;8.00;3.77;;;;;;;20.46;61.81;98276.56;263059;1092;114571;-67
2021/08/08 03:50:00;;;;;;;4.65;3.30;;;;;;;20.38;62.10;98277.45;263190;1091;115194;-64
2021/08/08 03:55:05;;;;;;;6.53;3.30;;;;;;;20.35;62.32;98291.31;263569;1093;115006;-66
2021/08/08 04:00:11;;;;;;;5.67;3.07;;;;;;;20.40;61.73;98285.38;263425;1092;115173;-64
2021/08/08 04:05:19;;;;;;;8.27;3.27;;;;;;;20.49;62.23;98343.80;263470;1093;114858;-66
2021/08/08 04:10:23;;;;;;;6.80;2.73;;;;;;;20.62;62.12;98346.81;262807;1092;115386;-65
2021/08/08 04:15:28;;;;;;;7.90;3.30;;;;;;;20.74;62.04;98358.06;263194;1092;115015;-62
2021/08/08 04:20:35;;;;;;;5.93;3.00;;;;;;;20.83;61.91;98362.42;263101;1092;115957;-65
2021/08/08 04:25:39;;;;;;;4.88;2.88;;;;;;;20.89;62.06;98380.66;263241;1093;115301;-63
2021/08/08 04:30:44;;;;;;;7.90;3.13;;;;;;;20.94;62.06;98391.77;263507;1093;114812;-67
2021/08/08 04:35:48;;;;;;;6.53;2.88;;;;;;;21.01;62.28;98406.27;263484;1092;115264;-66
2021/08/08 04:40:54;;;;;;;5.23;2.23;;;;;;;21.12;62.41;98417.72;263725;1092;114496;-63
2021/08/08 04:45:57;;;;;;;2.70;1.60;;;;;;;21.20;62.32;98417.69;263727;1093;115285;-62
2021/08/08 04:51:01;;;;;;;2.48;1.20;;;;;;;21.23;61.91;98428.16;263186;1092;115393;-65
2021/08/08 04:56:05;;;;;;;3.33;0.90;;;;;;;21.15;61.81;98439.01;263549;1092;115317;-64
2021/08/08 05:01:10;;;;;;;1.60;0.90;;;;;;;21.01;61.41;98460.38;263719;1093;114790;-68
2021/08/08 05:06:14;;;;;;;;;;;;;;;20.89;61.31;98478.03;263135;1092;116600;-71
2021/08/08 05:11:19;;;;;;;2.77;0.93;;;;;;;20.75;61.45;98476.90;262328;1092;102901;-64
2021/08/08 05:16:27;;;;;;;1.50;1.00;;;;;;;20.70;61.47;98500.90;263370;1092;114947;-64
2021/08/08 05:21:31;;;;;;;1.28;0.80;;;;;;;20.68;61.68;98507.48;263266;1093;114713;-66
2021/08/08 05:26:35;;;;;;;2.50;0.85;;;;;;;20.61;61.47;98506.49;263387;1093;115327;-64
2021/08/08 05:31:40;;;;;;;1.30;0.70;;;;;;;20.55;61.44;98503.48;263471;1093;115054;-64
2021/08/08 05:36:45;;;;;;;1.37;0.90;;;;;;;20.48;61.30;98523.20;263738;1092;114918;-72
2021/08/08 05:41:49;;;;;;;1.70;0.90;;;;;;;20.43;61.51;98521.02;263773;1092;115508;-68
2021/08/08 05:46:53;;;;;;;3.13;1.03;;;;;;;20.41;61.63;98544.66;262513;1092;114710;-63
2021/08/08 05:51:57;;;;;;;3.80;0.90;;;;;;;20.38;61.58;98555.84;263443;1092;114795;-63
2021/08/08 05:57:00;;;;;;;2.53;0.80;;;;;;;20.34;61.52;98543.66;263398;1093;114992;-60
2021/08/08 06:02:04;;;;;;;1.38;0.98;;;;;;;20.28;61.57;98547.90;263402;1092;115097;-64
2021/08/08 06:07:08;;;;;;;2.48;0.93;;;;;;;20.25;61.68;98564.45;263411;1092;114848;-67
2021/08/08 06:12:12;;;;;;;3.15;1.00;;;;;;;20.24;61.76;98581.66;263366;1092;114845;-65
2021/08/08 06:17:16;;;;;;;;;;;;;;;20.23;61.84;98582.67;263443;1092;114894;-65
2021/08/08 06:22:19;;;;;;;2.67;0.97;;;;;;;20.22;62.04;98599.07;263231;1092;101766;-65
2021/08/08 06:27:23;;;;;;;3.40;1.20;;;;;;;20.17;62.51;98612.22;263236;1093;115159;-66
2021/08/08 06:32:27;;;;;;;2.38;1.13;;;;;;;20.11;62.50;98634.49;263607;1092;115036;-69
2021/08/08 06:37:31;;;;;;;4.25;1.08;;;;;;;20.12;62.47;98657.83;263238;1092;115073;-62
2021/08/08 06:42:35;;;;;;;65.48;55.20;;;;;;;20.14;62.82;98671.99;263733;1092;114953;-61
2021/08/08 06:47:40;;;;;;;3.90;2.20;;;;;;;20.20;62.78;98660.53;263382;1092;115417;-64
2021/08/08 06:52:45;;;;;;;3.33;1.93;;;;;;;20.26;62.85;98676.09;263217;1092;115293;-69
2021/08/08 06:57:49;;;;;;;2.08;1.30;;;;;;;20.27;62.75;98694.83;263335;1093;115634;-68
2021/08/08 07:02:54;;;;;;;10.45;8.35;;;;;;;20.27;62.64;98683.17;263290;1092;116397;-66
2021/08/08 07:07:59;;;;;;;2.27;1.60;;;;;;;20.27;62.47;98708.34;263451;1093;115907;-61
2021/08/08 07:13:03;;;;;;;136.57;90.30;;;;;;;20.26;62.78;98701.25;263836;1093;114904;-60
2021/08/08 07:18:07;;;;;;;8.75;3.35;;;;;;;20.24;62.70;98699.72;263386;1091;115401;-61
2021/08/08 07:23:12;;;;;;;52.37;38.87;;;;;;;20.22;62.47;98705.30;263688;1093;115232;-63
2021/08/08 07:28:16;;;;;;;3.48;1.88;;;;;;;20.25;62.57;98712.23;263375;1091;115260;-58
2021/08/08 07:33:20;;;;;;;3.28;1.60;;;;;;;20.29;62.60;98713.59;263068;1092;114971;-59
2021/08/08 07:38:24;;;;;;;2.33;1.58;;;;;;;20.34;62.51;98708.52;263045;1092;115431;-64
2021/08/08 07:43:27;;;;;;;2.40;1.40;;;;;;;20.42;62.67;98703.16;263287;1092;115246;-62
2021/08/08 07:48:32;;;;;;;4.03;1.50;;;;;;;20.48;62.35;98715.14;263335;1093;114723;-61
2021/08/08 07:53:37;;;;;;;4.10;1.47;;;;;;;20.49;61.99;98708.74;263006;1091;115236;-61
2021/08/08 07:58:41;;;;;;;2.27;1.20;;;;;;;20.49;62.15;98712.28;263139;1092;116568;-61
2021/08/08 08:03:45;;;;;;;265.37;186.40;;;;;;;20.55;62.13;98702.70;263305;1092;115016;-62
2021/08/08 08:08:49;;;;;;;2.85;2.33;;;;;;;20.64;61.99;98711.66;263028;1093;115930;-63
2021/08/08 08:13:53;;;;;;;4.33;1.00;;;;;;;20.66;61.96;98720.45;263577;1092;114923;-60
2021/08/08 08:18:57;;;;;;;39.57;31.50;;;;;;;20.67;61.76;98712.16;263698;1091;114952;-61
2021/08/08 08:24:02;;;;;;;3.30;2.10;;;;;;;20.70;61.65;98673.13;263552;1093;115646;-62
2021/08/08 08:29:06;;;;;;;1.28;0.93;;;;;;;20.74;61.48;98675.31;263409;1091;115029;-63
2021/08/08 08:34:10;;;;;;;;;;;;;;;20.78;61.28;98703.71;263239;1092;115501;-61
2021/08/08 08:39:13;;;;;;;1.00;0.60;;;;;;;20.79;61.14;98701.88;263268;1092;100990;-66
2021/08/08 08:44:17;;;;;;;8.85;7.95;;;;;;;20.86;61.20;98700.19;263578;1092;115458;-65
2021/08/08 08:49:22;;;;;;;3.43;2.78;;;;;;;20.93;60.88;98703.91;263279;1093;114905;-57
2021/08/08 08:54:27;;;;;;;;;;;;;;;20.94;60.54;98696.63;263275;1093;115071;-62
2021/08/08 08:59:32;;;;;;;;;;;;;;;20.96;60.65;98705.44;263783;1092;102383;-63
2021/08/08 09:04:37;;;;;;;1.00;0.90;;;;;;;20.99;60.44;98708.64;263750;1092;102109;-65
2021/08/08 09:09:41;;;;;;;;;;;;;;;21.06;60.56;98724.17;263755;1092;115741;-62
2021/08/08 09:14:55;;;;;;;2.40;0.90;;;;;;;21.10;60.38;98730.96;263610;1093;101784;-64
2021/08/08 09:20:02;;;;;;;2.40;0.80;;;;;;;21.23;60.41;98731.30;263871;1093;114798;-62
2021/08/08 09:25:18;;;;;;;1.97;1.07;;;;;;;21.33;60.14;98731.95;263289;1092;115020;-61
2021/08/08 09:30:22;;;;;;;168.57;113.30;;;;;;;21.44;59.97;98723.50;263591;1092;114821;-61
2021/08/08 09:35:37;;;;;;;8.37;4.50;;;;;;;21.54;59.86;98734.14;263869;1092;115599;-61
2021/08/08 09:40:42;;;;;;;3.25;2.00;;;;;;;21.66;59.80;98732.74;263302;1092;115616;-62
2021/08/08 09:45:46;;;;;;;2.07;1.10;;;;;;;21.75;59.34;98733.58;263554;1092;114476;-65
2021/08/08 09:50:50;;;;;;;2.30;0.95;;;;;;;21.85;59.15;98736.93;263858;1093;114989;-61
2021/08/08 09:55:54;;;;;;;2.33;1.30;;;;;;;21.99;59.67;98724.52;263872;1092;115719;-61
2021/08/08 10:00:58;;;;;;;4.65;1.30;;;;;;;22.14;59.00;98743.58;263893;1092;115162;-62
2021/08/08 10:06:04;;;;;;;1.87;1.10;;;;;;;22.27;58.87;98735.76;263297;1092;114663;-62
2021/08/08 10:11:08;;;;;;;95.37;68.77;;;;;;;22.44;58.75;98736.52;263663;1091;115593;-61
2021/08/08 10:16:16;;;;;;;5.20;4.03;;;;;;;22.60;58.71;98733.70;263595;1092;114961;-62
2021/08/08 10:21:23;;;;;;;1.95;1.40;;;;;;;22.78;58.42;98741.55;263479;1093;114733;-62
2021/08/08 10:26:27;;;;;;;2.00;1.20;;;;;;;22.94;58.12;98739.78;262504;1093;115564;-59
2021/08/08 10:31:32;;;;;;;1.05;0.78;;;;;;;23.10;58.08;98761.38;263514;1092;114946;-59
2021/08/08 10:36:37;;;;;;;2.53;0.80;;;;;;;23.26;57.40;98755.78;263543;1093;114860;-59
2021/08/08 10:41:54;;;;;;;1.20;0.90;;;;;;;23.39;56.81;98768.75;263065;1093;115009;-59
2021/08/08 10:46:58;;;;;;;1.03;0.90;;;;;;;23.50;56.79;98757.42;263462;1092;115260;-60
2021/08/08 10:52:05;;;;;;;1.27;0.93;;;;;;;23.66;56.76;98764.58;262787;1092;115188;-61
2021/08/08 10:57:11;;;;;;;5.30;3.50;;;;;;;23.82;56.61;98767.16;263243;1092;115846;-60
2021/08/08 11:02:28;;;;;;;5.97;3.43;;;;;;;23.98;56.45;98757.11;263195;1092;115837;-59
2021/08/08 11:07:34;;;;;;;2.53;2.03;;;;;;;24.17;56.10;98767.42;263415;1092;115550;-60
2021/08/08 11:12:40;;;;;;;2.10;1.07;;;;;;;24.35;56.10;98775.18;263744;1092;115279;-59
2021/08/08 11:17:46;;;;;;;1.90;1.03;;;;;;;24.46;55.33;98784.78;263794;1093;115465;-60
2021/08/08 11:22:53;;;;;;;2.73;0.97;;;;;;;24.45;55.22;98783.91;263758;1092;114926;-61
2021/08/08 11:27:57;;;;;;;6.53;4.13;;;;;;;24.47;54.69;98786.47;263699;1093;115146;-61
2021/08/08 11:33:01;;;;;;;2.03;1.47;;;;;;;24.44;54.56;98792.28;263735;1091;114928;-59
2021/08/08 11:38:19;;;;;;;1.35;1.00;;;;;;;24.40;54.63;98788.23;263423;1093;114986;-61
2021/08/08 11:43:32;;;;;;;2.33;1.03;;;;;;;24.53;55.09;98788.43;261898;1093;114587;-59
2021/08/08 11:48:40;;;;;;;1.50;1.10;;;;;;;24.61;54.89;98792.91;262086;1092;114675;-59
2021/08/08 11:53:52;;;;;;;2.70;0.90;;;;;;;24.63;55.08;98791.69;261941;1092;115672;-60
2021/08/08 11:59:04;;;;;;;1.33;1.00;;;;;;;24.76;55.01;98783.68;261733;1092;115037;-60
2021/08/08 12:04:10;;;;;;;1.53;1.10;;;;;;;24.93;54.71;98789.73;261953;1092;114923;-58
2021/08/08 12:09:23;;;;;;;2.33;1.63;;;;;;;25.11;54.55;98794.75;262206;1092;115849;-58
2021/08/08 12:14:32;;;;;;;2.03;1.20;;;;;;;25.32;54.69;98798.50;262283;1093;114747;-61
2021/08/08 12:19:54;;;;;;;1.47;1.10;;;;;;;25.44;54.18;98799.64;261834;1092;114626;-60
2021/08/08 12:25:06;;;;;;;0.80;0.80;;;;;;;25.39;53.78;98797.52;262017;1093;114863;-58
2021/08/08 12:30:15;;;;;;;2.77;1.03;;;;;;;25.48;54.38;98803.69;263824;1092;115497;-57
2021/08/08 12:35:21;;;;;;;1.10;1.00;;;;;;;25.66;53.75;98795.02;263805;1092;116459;-57
2021/08/08 12:40:25;;;;;;;1.23;0.70;;;;;;;25.81;52.98;98808.56;263628;1092;115880;-59
2021/08/08 12:45:35;;;;;;;1.00;0.90;;;;;;;26.03;53.27;98817.54;263800;1092;114661;-60
2021/08/08 12:50:41;;;;;;;1.07;0.77;;;;;;;26.24;52.83;98819.34;263884;1092;115010;-56
2021/08/08 12:55:45;;;;;;;2.00;0.97;;;;;;;26.47;52.34;98811.73;263950;1093;115294;-58
2021/08/08 13:00:48;;;;;;;1.55;0.88;;;;;;;26.63;52.06;98805.92;263912;1092;114820;-58
2021/08/08 13:05:52;;;;;;;1.98;0.85;;;;;;;26.86;51.98;98815.64;263819;1093;115200;-59
2021/08/08 13:10:56;;;;;;;0.95;0.88;;;;;;;26.86;50.84;98818.38;263216;1092;115444;-60
2021/08/08 13:15:59;;;;;;;1.08;0.90;;;;;;;26.82;50.44;98831.59;263463;1093;114651;-61
2021/08/08 13:21:03;;;;;;;1.85;1.20;;;;;;;26.65;50.13;98836.57;263636;1093;115736;-60
2021/08/08 13:26:07;;;;;;;16.83;12.80;;;;;;;26.46;49.77;98834.59;263859;1092;115390;-59
2021/08/08 13:31:12;;;;;;;2.40;2.20;;;;;;;26.46;50.18;98834.59;264036;1092;115385;-59
2021/08/08 13:36:16;;;;;;;3.27;2.07;;;;;;;26.56;50.04;98837.81;263949;1093;116503;-59
2021/08/08 13:41:20;;;;;;;1.20;1.10;;;;;;;26.52;49.94;98831.05;263899;1092;115055;-62
2021/08/08 13:46:24;;;;;;;2.85;2.43;;;;;;;26.34;49.19;98834.30;263781;1092;115049;-61
2021/08/08 13:51:27;;;;;;;1.90;1.00;;;;;;;26.23;49.38;98831.31;263903;1093;114721;-59
2021/08/08 13:56:31;;;;;;;1.00;0.90;;;;;;;26.38;49.09;98823.82;263886;1093;115112;-63
2021/08/08 14:01:34;;;;;;;191.88;152.65;;;;;;;26.37;48.73;98814.80;264019;1092;115152;-61
2021/08/08 14:06:38;;;;;;;5.35;4.30;;;;;;;26.25;48.81;98818.29;263865;1091;115843;-59
2021/08/08 14:11:59;;;;;;;2.40;1.80;;;;;;;26.01;48.62;98812.27;263871;1093;114884;-59
2021/08/08 14:17:03;;;;;;;2.63;1.30;;;;;;;25.75;48.36;98804.73;263849;1093;115441;-60
2021/08/08 14:22:07;;;;;;;;;;;;;;;25.55;48.43;98807.30;263939;1091;115029;-63
2021/08/08 14:27:10;;;;;;;24.53;19.33;;;;;;;25.36;48.97;98813.41;264008;1092;102593;-59
2021/08/08 14:32:14;;;;;;;4.85;3.30;;;;;;;25.21;48.91;98819.78;263862;1092;115564;-60
2021/08/08 14:37:17;;;;;;;1.00;0.90;;;;;;;25.09;48.92;98818.56;264043;1093;114701;-61
2021/08/08 14:42:21;;;;;;;1.98;1.15;;;;;;;25.02;49.36;98823.10;263554;1091;115510;-62
2021/08/08 14:47:24;;;;;;;5.18;1.80;;;;;;;24.95;49.78;98833.08;263871;1092;115334;-61
2021/08/08 14:52:28;;;;;;;3.10;1.40;;;;;;;24.88;50.00;98822.11;263950;1091;115180;-61
2021/08/08 14:57:32;;;;;;;2.25;1.78;;;;;;;24.83;50.01;98818.27;263871;1092;114999;-62
2021/08/08 15:02:35;;;;;;;3.50;1.53;;;;;;;24.76;50.14;98824.51;263817;1092;115021;-62
2021/08/08 15:07:40;;;;;;;2.80;1.75;;;;;;;24.70;50.33;98822.55;264019;1093;115518;-62
2021/08/08 15:12:43;;;;;;;;;;;;;;;24.66;50.39;98829.41;263951;1092;115012;-62
2021/08/08 15:17:47;;;;;;;1.97;1.30;;;;;;;24.59;50.63;98830.34;263981;1091;101162;-61
2021/08/08 15:22:51;;;;;;;5.98;3.63;;;;;;;24.52;50.47;98839.29;263391;1092;115026;-62
2021/08/08 15:27:56;;;;;;;71.80;57.77;;;;;;;24.47;50.70;98849.88;263880;1093;115195;-61
2021/08/08 15:32:59;;;;;;;166.18;125.43;;;;;;;24.44;50.50;98857.58;262995;1092;115471;-64
2021/08/08 15:38:03;;;;;;;17.38;13.35;;;;;;;24.43;50.81;98843.14;263985;1092;115986;-62
2021/08/08 15:43:07;;;;;;;6.37;4.27;;;;;;;24.43;50.81;98851.30;263889;1092;115967;-62
2021/08/08 15:48:10;;;;;;;1.53;1.35;;;;;;;24.43;50.27;98858.62;263867;1092;115252;-64
2021/08/08 15:53:14;;;;;;;1.90;1.13;;;;;;;24.42;50.43;98865.06;263875;1093;114922;-64
2021/08/08 15:58:18;;;;;;;4.78;3.18;;;;;;;24.41;51.10;98863.39;263874;1092;115435;-62
2021/08/08 16:03:21;;;;;;;1.53;1.30;;;;;;;24.39;50.44;98879.02;263914;1093;115244;-62
2021/08/08 16:08:25;;;;;;;1.73;1.30;;;;;;;24.37;50.78;98873.77;263933;1093;115023;-62
2021/08/08 16:13:29;;;;;;;2.63;1.30;;;;;;;24.36;50.77;98876.70;263140;1093;114640;-63
2021/08/08 16:18:33;;;;;;;1.20;1.00;;;;;;;24.33;50.88;98882.51;263833;1093;115298;-63
2021/08/08 16:23:38;;;;;;;71.23;53.48;;;;;;;24.31;50.79;98879.95;263900;1092;115482;-62
2021/08/08 16:28:41;;;;;;;;;;;;;;;24.31;50.57;98882.67;263860;1093;115363;-63
2021/08/08 16:33:45;;;;;;;8.27;4.90;;;;;;;24.29;50.76;98888.31;263833;1092;102011;-62
2021/08/08 16:38:49;;;;;;;3.83;2.33;;;;;;;24.28;50.74;98899.37;263921;1092;115166;-63
2021/08/08 16:44:13;;;;;;;3.85;2.78;;;;;;;24.25;50.79;98895.17;263864;1091;115771;-63
2021/08/08 16:49:17;;;;;;;;;;;;;;;24.20;51.14;98894.03;263888;1092;115232;-62
2021/08/08 16:54:20;;;;;;;3.10;1.33;;;;;;;24.14;51.14;98887.45;263979;1092;101835;-62
2021/08/08 16:59:24;;;;;;;3.05;1.60;;;;;;;24.11;51.13;98887.81;263875;1093;116462;-62
2021/08/08 17:04:35;;;;;;;6.50;4.37;;;;;;;24.11;50.93;98878.81;263914;1092;115349;-62
2021/08/08 17:09:38;;;;;;;3.50;3.13;;;;;;;24.08;51.04;98877.31;263867;1091;116387;-62
2021/08/08 17:14:42;;;;;;;3.08;2.18;;;;;;;24.06;51.10;98885.66;263907;1093;115100;-62
2021/08/08 17:19:46;;;;;;;67.65;51.15;;;;;;;24.08;51.15;98888.18;263932;1093;114813;-63
2021/08/08 17:24:49;;;;;;;8.40;5.55;;;;;;;24.10;50.86;98898.89;263893;1093;115754;-63
2021/08/08 17:29:53;;;;;;;4.38;3.65;;;;;;;24.08;51.15;98899.06;263795;1092;115054;-64
2021/08/08 17:34:57;;;;;;;3.38;2.10;;;;;;;24.05;51.03;98903.02;263417;1093;115085;-65
2021/08/08 17:40:00;;;;;;;4.25;3.38;;;;;;;24.04;51.39;98889.59;263638;1092;114739;-62
2021/08/08 17:45:04;;;;;;;2.73;1.80;;;;;;;24.01;51.44;98885.36;263902;1091;115065;-63
2021/08/08 17:50:09;;;;;;;2.58;1.80;;;;;;;24.00;51.37;98882.84;264007;1092;115400;-65
2021/08/08 17:55:13;;;;;;;3.25;1.85;;;;;;;23.95;51.25;98886.13;263835;1092;114980;-65
2021/08/08 18:00:17;;;;;;;6.95;4.00;;;;;;;23.92;51.49;98897.36;263878;1093;114658;-63
2021/08/08 18:05:20;;;;;;;6.78;2.80;;;;;;;23.87;51.86;98904.37;263632;1092;115309;-63
2021/08/08 18:10:24;;;;;;;205.80;180.80;;;;;;;23.83;52.02;98906.61;262745;1092;115178;-62
2021/08/08 18:15:28;;;;;;;13.33;11.93;;;;;;;23.79;52.26;98897.98;263858;1092;115582;-62
2021/08/08 18:20:32;;;;;;;4.63;2.97;;;;;;;23.71;52.54;98897.19;263839;1093;114883;-63
2021/08/08 18:25:36;;;;;;;4.25;3.00;;;;;;;23.64;52.63;98905.23;263289;1093;114927;-61
2021/08/08 18:30:40;;;;;;;5.65;4.35;;;;;;;23.59;52.95;98918.50;263471;1092;115111;-62
2021/08/08 18:35:44;;;;;;;3.15;2.23;;;;;;;23.54;52.84;98931.80;262798;1093;114967;-61
2021/08/08 18:40:48;;;;;;;4.37;2.30;;;;;;;23.50;53.77;98920.41;263864;1092;114911;-62
2021/08/08 18:45:52;;;;;;;;;;;;;;;23.45;53.60;98922.84;263631;1093;115078;-62
2021/08/08 18:50:57;;;;;;;4.10;2.20;;;;;;;23.37;53.53;98941.92;263924;1093;101004;-62
2021/08/08 18:56:01;;;;;;;3.87;1.90;;;;;;;23.31;53.87;98927.19;263949;1092;115151;-61
2021/08/08 19:01:05;;;;;;;4.28;2.75;;;;;;;23.28;54.23;98927.53;263825;1093;115169;-62
2021/08/08 19:06:09;;;;;;;433.50;349.28;;;;;;;23.27;54.43;98936.72;263850;1092;115292;-61
2021/08/08 19:11:13;;;;;;;24.88;19.53;;;;;;;23.25;54.58;98944.19;263557;1093;115960;-63
2021/08/08 19:16:17;;;;;;;10.08;5.05;;;;;;;23.19;54.61;98954.91;263924;1092;115161;-62
2021/08/08 19:21:21;;;;;;;5.43;3.57;;;;;;;23.13;54.93;98960.05;263899;1093;115277;-63
2021/08/08 19:26:25;;;;;;;4.65;3.28;;;;;;;23.08;55.45;98959.72;263948;1092;115089;-62
2021/08/08 19:31:28;;;;;;;4.98;3.00;;;;;;;23.05;55.40;98953.80;264076;1092;115507;-62
2021/08/08 19:36:33;;;;;;;;;;;;;;;23.03;55.74;98950.40;263713;1091;114815;-62
2021/08/08 19:41:36;;;;;;;4.70;2.83;;;;;;;22.96;56.24;98954.84;263876;1092;101205;-61
2021/08/08 19:46:40;;;;;;;7.93;2.90;;;;;;;22.94;56.42;98946.05;263965;1092;115091;-61
2021/08/08 19:51:43;;;;;;;6.07;2.50;;;;;;;22.96;56.83;98952.13;263621;1093;114924;-60
2021/08/08 19:56:47;;;;;;;4.98;2.73;;;;;;;23.02;57.36;98951.44;263925;1093;114523;-62
2021/08/08 20:01:51;;;;;;;8.00;2.50;;;;;;;23.06;57.46;98945.49;263990;1092;115072;-66
2021/08/08 20:06:58;;;;;;;6.47;2.40;;;;;;;23.05;56.99;98953.80;263670;1092;114934;-63
2021/08/08 20:12:01;;;;;;;5.25;2.38;;;;;;;23.02;57.38;98960.42;263753;1093;115564;-63
2021/08/08 20:17:05;;;;;;;6.80;2.30;;;;;;;23.01;57.52;98960.61;263939;1093;114983;-69
2021/08/08 20:22:10;;;;;;;8.38;3.68;;;;;;;23.01;57.66;98955.18;263669;1092;114784;-61
2021/08/08 20:27:13;;;;;;;4.60;3.07;;;;;;;23.01;57.74;98960.61;263940;1093;115173;-62
2021/08/08 20:32:17;;;;;;;5.80;3.18;;;;;;;22.95;58.20;98964.02;263668;1092;115026;-61
2021/08/08 20:37:20;;;;;;;4.70;2.30;;;;;;;22.84;58.29;98971.49;263963;1092;115334;-62
2021/08/08 20:42:24;;;;;;;4.68;2.33;;;;;;;22.78;58.51;98987.63;263899;1093;115208;-63
2021/08/08 20:47:28;;;;;;;6.48;2.43;;;;;;;22.79;58.72;98956.75;263915;1091;115001;-60
2021/08/08 20:52:31;;;;;;;4.55;1.95;;;;;;;22.77;58.25;98943.38;263678;1092;115293;-61
2021/08/08 20:57:35;;;;;;;2.85;1.63;;;;;;;22.71;58.04;98938.64;263884;1092;114590;-63
2021/08/08 21:02:39;;;;;;;2.15;1.28;;;;;;;22.56;58.17;98937.69;263827;1093;114953;-60
2021/08/08 21:07:43;;;;;;;5.28;1.90;;;;;;;22.40;58.39;98938.57;264045;1093;114992;-60
2021/08/08 21:12:50;;;;;;;4.53;1.70;;;;;;;22.23;58.38;98954.02;263617;1092;114906;-62
2021/08/08 21:17:55;;;;;;;3.43;1.57;;;;;;;22.07;58.92;98956.72;263298;1092;115836;-63
2021/08/08 21:22:59;;;;;;;1.90;1.33;;;;;;;21.92;59.17;98957.41;263548;1092;115042;-64
2021/08/08 21:28:03;;;;;;;4.90;1.55;;;;;;;21.86;59.53;98949.11;263950;1092;115276;-63
2021/08/08 21:33:06;;;;;;;3.50;1.45;;;;;;;21.85;59.88;98959.11;263581;1092;114577;-65
2021/08/08 21:38:10;;;;;;;1.83;1.40;;;;;;;21.78;59.96;98970.80;264064;1092;114931;-64
2021/08/08 21:43:13;;;;;;;2.30;1.50;;;;;;;21.70;59.87;99012.24;263637;1093;115004;-61
2021/08/08 21:48:17;;;;;;;1.73;1.40;;;;;;;21.59;60.06;99058.61;263677;1092;115597;-62
2021/08/08 21:53:20;;;;;;;4.43;1.43;;;;;;;21.47;60.27;99033.71;263028;1092;114988;-60
2021/08/08 21:58:24;;;;;;;1.93;1.28;;;;;;;21.41;60.47;99010.00;263344;1092;115259;-62
2021/08/08 22:03:28;;;;;;;2.50;1.50;;;;;;;21.34;60.59;99036.88;262625;1092;114900;-59
2021/08/08 22:08:32;;;;;;;;;;;;;;;21.27;60.97;99057.47;261768;1093;114978;-59
2021/08/08 22:13:36;;;;;;;6.17;2.20;;;;;;;21.08;61.39;99119.95;263759;1092;101436;-61
2021/08/08 22:18:40;;;;;;;13.10;2.78;;;;;;;20.82;61.86;99180.30;262118;1092;116461;-62
2021/08/08 22:23:43;;;;;;;6.40;2.47;;;;;;;20.63;62.40;99150.76;263914;1092;115252;-63
2021/08/08 22:28:46;;;;;;;7.20;2.80;;;;;;;20.48;63.04;99113.44;263911;1093;114484;-63
2021/08/08 22:33:50;;;;;;;4.73;2.07;;;;;;;20.35;62.83;99115.69;263967;1092;114947;-64
2021/08/08 22:38:54;;;;;;;5.48;2.15;;;;;;;20.19;62.90;99119.08;263858;1093;115672;-64
2021/08/08 22:43:58;;;;;;;3.28;1.70;;;;;;;20.06;62.90;99124.86;264079;1092;114594;-62
2021/08/08 22:49:01;;;;;;;3.87;1.97;;;;;;;19.96;63.46;99171.86;263934;1092;114527;-66
2021/08/08 22:54:05;;;;;;;7.77;1.70;;;;;;;20.03;64.15;99217.02;263154;1091;115304;-63
2021/08/08 22:59:12;;;;;;;6.87;2.07;;;;;;;20.02;64.32;99236.95;263918;1091;114714;-64
2021/08/08 23:04:15;;;;;;;4.37;2.10;;;;;;;20.03;64.55;99251.30;263937;1092;114536;-62
2021/08/08 23:09:19;;;;;;;4.38;1.90;;;;;;;20.00;64.90;99255.14;263880;1092;115585;-62
2021/08/08 23:14:23;;;;;;;3.47;2.27;;;;;;;20.04;65.61;99258.39;263957;1092;115289;-63
2021/08/08 23:19:28;;;;;;;7.08;2.38;;;;;;;20.03;65.50;99252.14;263011;1092;115057;-64